sensor_id;sensor_type;location;lat;lon;timestamp;P1;durP1;ratioP1;P2;durP2;ratioP2
10335;SDS011;5213;53.548;9.930;2023-02-19T00:01:06;11.00;;;4.38;;
10335;SDS011;5213;53.548;9.930;2023-02-19T00:03:32;8.20;;;4.80;;
10335;SDS011;5213;53.548;9.930;2023-02-19T00:06:02;6.55;;;4.82;;
10335;SDS011;5213;53.548;9.930;2023-02-19T00:08:29;8.82;;;5.03;;
10335;SDS011;5213;53.548;9.930;2023-02-19T00:10:59;10.27;;;4.38;;
10335;SDS011;5213;53.548;9.930;2023-02-19T00:13:25;8.02;;;4.82;;
10335;SDS011;5213;53.548;9.930;2023-02-19T00:15:51;6.53;;;4.55;;
10335;SDS011;5213;53.548;9.930;2023-02-19T00:18:17;6.38;;;4.30;;
10335;SDS011;5213;53.548;9.930;2023-02-19T00:20:43;8.77;;;4.55;;
10335;SDS011;5213;53.548;9.930;2023-02-19T00:23:09;7.28;;;4.78;;
10335;SDS011;5213;53.548;9.930;2023-02-19T00:25:35;8.50;;;4.80;;
10335;SDS011;5213;53.548;9.930;2023-02-19T00:28:02;7.63;;;4.38;;
10335;SDS011;5213;53.548;9.930;2023-02-19T00:30:28;6.07;;;4.55;;
10335;SDS011;5213;53.548;9.930;2023-02-19T00:32:54;6.45;;;5.13;;
10335;SDS011;5213;53.548;9.930;2023-02-19T00:35:20;6.85;;;5.25;;
10335;SDS011;5213;53.548;9.930;2023-02-19T00:37:47;10.57;;;7.07;;
10335;SDS011;5213;53.548;9.930;2023-02-19T00:40:13;12.55;;;7.72;;
10335;SDS011;5213;53.548;9.930;2023-02-19T00:42:39;11.45;;;8.63;;
10335;SDS011;5213;53.548;9.930;2023-02-19T00:45:05;10.05;;;8.10;;
10335;SDS011;5213;53.548;9.930;2023-02-19T00:47:31;11.65;;;8.40;;
10335;SDS011;5213;53.548;9.930;2023-02-19T00:49:57;14.27;;;9.75;;
10335;SDS011;5213;53.548;9.930;2023-02-19T00:52:23;15.02;;;9.23;;
10335;SDS011;5213;53.548;9.930;2023-02-19T00:54:49;12.85;;;8.73;;
10335;SDS011;5213;53.548;9.930;2023-02-19T00:57:15;11.60;;;9.05;;
10335;SDS011;5213;53.548;9.930;2023-02-19T00:59:41;12.43;;;9.75;;
10335;SDS011;5213;53.548;9.930;2023-02-19T01:02:07;15.35;;;10.18;;
10335;SDS011;5213;53.548;9.930;2023-02-19T01:04:33;14.55;;;9.60;;
10335;SDS011;5213;53.548;9.930;2023-02-19T01:06:59;13.82;;;9.73;;
10335;SDS011;5213;53.548;9.930;2023-02-19T01:09:25;12.52;;;9.80;;
10335;SDS011;5213;53.548;9.930;2023-02-19T01:11:51;12.70;;;9.40;;
10335;SDS011;5213;53.548;9.930;2023-02-19T01:14:17;12.70;;;9.63;;
10335;SDS011;5213;53.548;9.930;2023-02-19T01:16:43;12.60;;;8.30;;
10335;SDS011;5213;53.548;9.930;2023-02-19T01:19:09;12.70;;;9.57;;
10335;SDS011;5213;53.548;9.930;2023-02-19T01:21:35;11.35;;;9.13;;
10335;SDS011;5213;53.548;9.930;2023-02-19T01:24:01;11.45;;;8.80;;
10335;SDS011;5213;53.548;9.930;2023-02-19T01:26:29;12.80;;;9.30;;
10335;SDS011;5213;53.548;9.930;2023-02-19T01:28:55;10.40;;;8.60;;
10335;SDS011;5213;53.548;9.930;2023-02-19T01:31:22;9.68;;;8.68;;
10335;SDS011;5213;53.548;9.930;2023-02-19T01:33:49;11.65;;;8.70;;
10335;SDS011;5213;53.548;9.930;2023-02-19T01:36:16;8.77;;;7.38;;
10335;SDS011;5213;53.548;9.930;2023-02-19T01:38:42;9.98;;;8.48;;
10335;SDS011;5213;53.548;9.930;2023-02-19T01:41:09;11.00;;;7.60;;
10335;SDS011;5213;53.548;9.930;2023-02-19T01:43:55;10.13;;;7.75;;
10335;SDS011;5213;53.548;9.930;2023-02-19T01:46:26;9.82;;;7.45;;
10335;SDS011;5213;53.548;9.930;2023-02-19T01:48:52;8.75;;;7.28;;
10335;SDS011;5213;53.548;9.930;2023-02-19T01:51:18;10.23;;;7.63;;
10335;SDS011;5213;53.548;9.930;2023-02-19T01:53:46;5.72;;;4.93;;
10335;SDS011;5213;53.548;9.930;2023-02-19T01:56:15;5.90;;;3.28;;
10335;SDS011;5213;53.548;9.930;2023-02-19T01:58:42;7.03;;;4.20;;
10335;SDS011;5213;53.548;9.930;2023-02-19T02:01:08;6.00;;;3.20;;
10335;SDS011;5213;53.548;9.930;2023-02-19T02:03:35;5.63;;;3.25;;
10335;SDS011;5213;53.548;9.930;2023-02-19T02:06:10;3.83;;;3.10;;
10335;SDS011;5213;53.548;9.930;2023-02-19T02:08:38;3.67;;;2.83;;
10335;SDS011;5213;53.548;9.930;2023-02-19T02:11:23;5.22;;;2.75;;
10335;SDS011;5213;53.548;9.930;2023-02-19T02:13:49;6.90;;;3.10;;
10335;SDS011;5213;53.548;9.930;2023-02-19T02:26:29;4.15;;;2.30;;
10335;SDS011;5213;53.548;9.930;2023-02-19T02:29:13;3.05;;;2.45;;
10335;SDS011;5213;53.548;9.930;2023-02-19T02:31:53;5.63;;;2.72;;
10335;SDS011;5213;53.548;9.930;2023-02-19T02:34:55;6.00;;;2.47;;
10335;SDS011;5213;53.548;9.930;2023-02-19T02:37:14;7.97;;;3.28;;
10335;SDS011;5213;53.548;9.930;2023-02-19T02:39:40;8.65;;;2.92;;
10335;SDS011;5213;53.548;9.930;2023-02-19T02:42:07;6.63;;;2.90;;
10335;SDS011;5213;53.548;9.930;2023-02-19T02:44:51;6.70;;;2.97;;
10335;SDS011;5213;53.548;9.930;2023-02-19T02:47:37;5.18;;;2.63;;
10335;SDS011;5213;53.548;9.930;2023-02-19T02:50:15;4.07;;;2.80;;
10335;SDS011;5213;53.548;9.930;2023-02-19T02:52:43;4.63;;;2.97;;
10335;SDS011;5213;53.548;9.930;2023-02-19T02:55:30;4.72;;;2.80;;
10335;SDS011;5213;53.548;9.930;2023-02-19T02:57:59;8.68;;;2.53;;
10335;SDS011;5213;53.548;9.930;2023-02-19T03:00:25;4.97;;;2.35;;
10335;SDS011;5213;53.548;9.930;2023-02-19T03:03:12;6.15;;;2.60;;
10335;SDS011;5213;53.548;9.930;2023-02-19T03:05:39;8.20;;;2.65;;
10335;SDS011;5213;53.548;9.930;2023-02-19T03:08:30;6.45;;;2.28;;
10335;SDS011;5213;53.548;9.930;2023-02-19T03:11:00;7.40;;;2.30;;
10335;SDS011;5213;53.548;9.930;2023-02-19T03:13:46;3.97;;;2.47;;
10335;SDS011;5213;53.548;9.930;2023-02-19T03:16:32;5.47;;;2.70;;
10335;SDS011;5213;53.548;9.930;2023-02-19T03:19:18;5.78;;;2.55;;
10335;SDS011;5213;53.548;9.930;2023-02-19T03:21:53;6.53;;;2.40;;
10335;SDS011;5213;53.548;9.930;2023-02-19T03:24:29;4.68;;;2.00;;
10335;SDS011;5213;53.548;9.930;2023-02-19T03:27:15;5.63;;;2.60;;
10335;SDS011;5213;53.548;9.930;2023-02-19T03:29:42;4.47;;;2.30;;
10335;SDS011;5213;53.548;9.930;2023-02-19T03:32:20;5.43;;;2.22;;
10335;SDS011;5213;53.548;9.930;2023-02-19T03:34:51;6.43;;;2.33;;
10335;SDS011;5213;53.548;9.930;2023-02-19T03:40:14;5.88;;;2.80;;
10335;SDS011;5213;53.548;9.930;2023-02-19T03:48:03;7.88;;;2.53;;
10335;SDS011;5213;53.548;9.930;2023-02-19T03:50:34;5.32;;;3.08;;
10335;SDS011;5213;53.548;9.930;2023-02-19T03:55:43;6.47;;;3.30;;
10335;SDS011;5213;53.548;9.930;2023-02-19T03:58:20;6.13;;;3.35;;
10335;SDS011;5213;53.548;9.930;2023-02-19T04:03:19;6.35;;;3.83;;
10335;SDS011;5213;53.548;9.930;2023-02-19T04:05:49;6.72;;;3.40;;
10335;SDS011;5213;53.548;9.930;2023-02-19T04:08:18;8.15;;;3.55;;
10335;SDS011;5213;53.548;9.930;2023-02-19T04:10:45;8.15;;;4.10;;
10335;SDS011;5213;53.548;9.930;2023-02-19T04:13:15;7.45;;;4.10;;
10335;SDS011;5213;53.548;9.930;2023-02-19T04:15:42;7.15;;;3.90;;
10335;SDS011;5213;53.548;9.930;2023-02-19T04:18:13;8.55;;;3.80;;
10335;SDS011;5213;53.548;9.930;2023-02-19T04:20:41;8.65;;;3.63;;
10335;SDS011;5213;53.548;9.930;2023-02-19T04:23:08;10.05;;;3.65;;
10335;SDS011;5213;53.548;9.930;2023-02-19T04:25:35;7.32;;;3.40;;
10335;SDS011;5213;53.548;9.930;2023-02-19T04:28:03;6.65;;;3.33;;
10335;SDS011;5213;53.548;9.930;2023-02-19T04:30:29;7.60;;;3.30;;
10335;SDS011;5213;53.548;9.930;2023-02-19T04:32:55;9.25;;;3.00;;
10335;SDS011;5213;53.548;9.930;2023-02-19T04:35:21;8.23;;;3.47;;
10335;SDS011;5213;53.548;9.930;2023-02-19T04:37:47;5.65;;;3.05;;
10335;SDS011;5213;53.548;9.930;2023-02-19T04:40:13;4.57;;;2.45;;
10335;SDS011;5213;53.548;9.930;2023-02-19T04:42:39;4.80;;;2.40;;
10335;SDS011;5213;53.548;9.930;2023-02-19T04:45:05;8.63;;;2.80;;
10335;SDS011;5213;53.548;9.930;2023-02-19T04:47:31;4.97;;;2.72;;
10335;SDS011;5213;53.548;9.930;2023-02-19T04:49:57;4.35;;;2.60;;
10335;SDS011;5213;53.548;9.930;2023-02-19T04:52:23;4.15;;;2.75;;
10335;SDS011;5213;53.548;9.930;2023-02-19T04:54:49;8.93;;;2.92;;
10335;SDS011;5213;53.548;9.930;2023-02-19T04:57:15;4.25;;;2.63;;
10335;SDS011;5213;53.548;9.930;2023-02-19T04:59:42;7.18;;;2.88;;
10335;SDS011;5213;53.548;9.930;2023-02-19T05:02:08;5.57;;;2.30;;
10335;SDS011;5213;53.548;9.930;2023-02-19T05:04:33;4.40;;;2.40;;
10335;SDS011;5213;53.548;9.930;2023-02-19T05:07:00;6.13;;;2.40;;
10335;SDS011;5213;53.548;9.930;2023-02-19T05:09:26;3.40;;;2.28;;
10335;SDS011;5213;53.548;9.930;2023-02-19T05:11:52;4.95;;;2.65;;
10335;SDS011;5213;53.548;9.930;2023-02-19T05:14:18;3.33;;;2.42;;
10335;SDS011;5213;53.548;9.930;2023-02-19T05:16:44;7.10;;;2.40;;
10335;SDS011;5213;53.548;9.930;2023-02-19T05:19:10;7.78;;;2.45;;
10335;SDS011;5213;53.548;9.930;2023-02-19T05:21:36;5.15;;;2.28;;
10335;SDS011;5213;53.548;9.930;2023-02-19T05:24:05;6.25;;;2.67;;
10335;SDS011;5213;53.548;9.930;2023-02-19T05:26:31;4.65;;;2.30;;
10335;SDS011;5213;53.548;9.930;2023-02-19T05:28:58;9.82;;;2.60;;
10335;SDS011;5213;53.548;9.930;2023-02-19T05:31:24;9.13;;;2.50;;
10335;SDS011;5213;53.548;9.930;2023-02-19T05:33:50;8.43;;;2.90;;
10335;SDS011;5213;53.548;9.930;2023-02-19T05:36:18;2.85;;;2.20;;
10335;SDS011;5213;53.548;9.930;2023-02-19T05:38:44;5.47;;;2.70;;
10335;SDS011;5213;53.548;9.930;2023-02-19T05:43:40;8.13;;;2.72;;
10335;SDS011;5213;53.548;9.930;2023-02-19T05:46:06;5.15;;;2.63;;
10335;SDS011;5213;53.548;9.930;2023-02-19T05:48:33;7.38;;;2.72;;
10335;SDS011;5213;53.548;9.930;2023-02-19T05:51:06;4.93;;;3.00;;
10335;SDS011;5213;53.548;9.930;2023-02-19T05:53:32;5.03;;;2.47;;
10335;SDS011;5213;53.548;9.930;2023-02-19T05:55:58;5.22;;;2.38;;
10335;SDS011;5213;53.548;9.930;2023-02-19T05:58:25;3.67;;;2.47;;
10335;SDS011;5213;53.548;9.930;2023-02-19T06:00:51;3.70;;;2.20;;
10335;SDS011;5213;53.548;9.930;2023-02-19T06:03:17;5.60;;;2.20;;
10335;SDS011;5213;53.548;9.930;2023-02-19T06:05:43;8.50;;;2.67;;
10335;SDS011;5213;53.548;9.930;2023-02-19T06:08:11;5.95;;;3.00;;
10335;SDS011;5213;53.548;9.930;2023-02-19T06:10:37;5.53;;;2.60;;
10335;SDS011;5213;53.548;9.930;2023-02-19T06:13:05;7.75;;;2.63;;
10335;SDS011;5213;53.548;9.930;2023-02-19T06:15:31;4.95;;;2.67;;
10335;SDS011;5213;53.548;9.930;2023-02-19T06:17:57;5.25;;;2.25;;
10335;SDS011;5213;53.548;9.930;2023-02-19T06:20:23;8.27;;;2.45;;
10335;SDS011;5213;53.548;9.930;2023-02-19T06:22:49;5.82;;;2.72;;
10335;SDS011;5213;53.548;9.930;2023-02-19T06:25:16;6.65;;;2.67;;
10335;SDS011;5213;53.548;9.930;2023-02-19T06:27:42;8.52;;;2.90;;
10335;SDS011;5213;53.548;9.930;2023-02-19T06:30:08;5.30;;;2.50;;
10335;SDS011;5213;53.548;9.930;2023-02-19T06:32:35;9.73;;;2.65;;
10335;SDS011;5213;53.548;9.930;2023-02-19T06:35:01;9.88;;;2.78;;
10335;SDS011;5213;53.548;9.930;2023-02-19T06:37:27;5.80;;;3.13;;
10335;SDS011;5213;53.548;9.930;2023-02-19T06:39:53;8.05;;;2.70;;
10335;SDS011;5213;53.548;9.930;2023-02-19T06:42:19;4.70;;;2.90;;
10335;SDS011;5213;53.548;9.930;2023-02-19T06:44:45;10.32;;;3.28;;
10335;SDS011;5213;53.548;9.930;2023-02-19T06:47:11;8.68;;;3.15;;
10335;SDS011;5213;53.548;9.930;2023-02-19T06:49:38;8.27;;;3.05;;
10335;SDS011;5213;53.548;9.930;2023-02-19T06:52:04;8.18;;;3.50;;
10335;SDS011;5213;53.548;9.930;2023-02-19T06:54:30;7.20;;;3.55;;
10335;SDS011;5213;53.548;9.930;2023-02-19T06:56:57;12.18;;;3.92;;
10335;SDS011;5213;53.548;9.930;2023-02-19T06:59:24;7.10;;;3.95;;
10335;SDS011;5213;53.548;9.930;2023-02-19T07:01:50;10.07;;;4.30;;
10335;SDS011;5213;53.548;9.930;2023-02-19T07:04:16;12.52;;;5.03;;
10335;SDS011;5213;53.548;9.930;2023-02-19T07:06:42;11.55;;;5.40;;
10335;SDS011;5213;53.548;9.930;2023-02-19T07:09:09;11.85;;;5.38;;
10335;SDS011;5213;53.548;9.930;2023-02-19T07:11:35;13.05;;;5.78;;
10335;SDS011;5213;53.548;9.930;2023-02-19T07:14:03;14.68;;;6.28;;
10335;SDS011;5213;53.548;9.930;2023-02-19T07:16:29;8.95;;;5.25;;
10335;SDS011;5213;53.548;9.930;2023-02-19T07:18:56;11.52;;;5.68;;
10335;SDS011;5213;53.548;9.930;2023-02-19T07:21:22;15.48;;;6.07;;
10335;SDS011;5213;53.548;9.930;2023-02-19T07:23:49;10.35;;;5.57;;
10335;SDS011;5213;53.548;9.930;2023-02-19T07:26:15;7.47;;;5.18;;
10335;SDS011;5213;53.548;9.930;2023-02-19T07:28:43;12.55;;;6.28;;
10335;SDS011;5213;53.548;9.930;2023-02-19T07:31:09;9.13;;;5.00;;
10335;SDS011;5213;53.548;9.930;2023-02-19T07:33:35;7.88;;;5.05;;
10335;SDS011;5213;53.548;9.930;2023-02-19T07:36:01;9.73;;;5.13;;
10335;SDS011;5213;53.548;9.930;2023-02-19T07:38:27;11.05;;;5.07;;
10335;SDS011;5213;53.548;9.930;2023-02-19T07:40:54;7.90;;;4.53;;
10335;SDS011;5213;53.548;9.930;2023-02-19T07:43:22;9.98;;;4.80;;
10335;SDS011;5213;53.548;9.930;2023-02-19T07:45:48;9.20;;;4.13;;
10335;SDS011;5213;53.548;9.930;2023-02-19T07:48:14;11.30;;;4.40;;
10335;SDS011;5213;53.548;9.930;2023-02-19T07:50:40;10.02;;;3.88;;
10335;SDS011;5213;53.548;9.930;2023-02-19T07:53:06;10.05;;;4.40;;
10335;SDS011;5213;53.548;9.930;2023-02-19T07:55:32;10.20;;;3.67;;
10335;SDS011;5213;53.548;9.930;2023-02-19T07:57:59;6.97;;;3.80;;
10335;SDS011;5213;53.548;9.930;2023-02-19T08:00:26;8.02;;;3.63;;
10335;SDS011;5213;53.548;9.930;2023-02-19T08:02:52;7.53;;;3.50;;
10335;SDS011;5213;53.548;9.930;2023-02-19T08:05:24;10.93;;;3.45;;
10335;SDS011;5213;53.548;9.930;2023-02-19T08:07:50;6.35;;;2.90;;
10335;SDS011;5213;53.548;9.930;2023-02-19T08:10:16;5.70;;;3.03;;
10335;SDS011;5213;53.548;9.930;2023-02-19T08:13:02;6.68;;;2.78;;
10335;SDS011;5213;53.548;9.930;2023-02-19T08:15:47;4.50;;;2.70;;
10335;SDS011;5213;53.548;9.930;2023-02-19T08:18:13;4.60;;;2.83;;
10335;SDS011;5213;53.548;9.930;2023-02-19T08:20:40;5.82;;;3.00;;
10335;SDS011;5213;53.548;9.930;2023-02-19T08:23:06;6.68;;;3.20;;
10335;SDS011;5213;53.548;9.930;2023-02-19T08:25:32;9.23;;;2.60;;
10335;SDS011;5213;53.548;9.930;2023-02-19T08:27:58;6.32;;;2.72;;
10335;SDS011;5213;53.548;9.930;2023-02-19T08:30:25;7.20;;;3.05;;
10335;SDS011;5213;53.548;9.930;2023-02-19T08:32:51;8.65;;;3.00;;
10335;SDS011;5213;53.548;9.930;2023-02-19T08:35:17;8.82;;;2.38;;
10335;SDS011;5213;53.548;9.930;2023-02-19T08:37:44;6.20;;;2.40;;
10335;SDS011;5213;53.548;9.930;2023-02-19T08:40:10;5.35;;;2.45;;
10335;SDS011;5213;53.548;9.930;2023-02-19T08:42:36;5.53;;;2.42;;
10335;SDS011;5213;53.548;9.930;2023-02-19T08:45:03;5.32;;;2.38;;
10335;SDS011;5213;53.548;9.930;2023-02-19T08:47:29;4.47;;;1.85;;
10335;SDS011;5213;53.548;9.930;2023-02-19T08:49:55;4.05;;;2.30;;
10335;SDS011;5213;53.548;9.930;2023-02-19T08:52:21;4.95;;;2.00;;
10335;SDS011;5213;53.548;9.930;2023-02-19T08:54:47;6.00;;;1.80;;
10335;SDS011;5213;53.548;9.930;2023-02-19T08:57:13;6.80;;;2.13;;
10335;SDS011;5213;53.548;9.930;2023-02-19T08:59:39;3.08;;;1.73;;
10335;SDS011;5213;53.548;9.930;2023-02-19T09:02:05;6.30;;;1.90;;
10335;SDS011;5213;53.548;9.930;2023-02-19T09:04:31;5.25;;;2.10;;
10335;SDS011;5213;53.548;9.930;2023-02-19T09:06:57;4.82;;;1.45;;
10335;SDS011;5213;53.548;9.930;2023-02-19T09:09:23;5.35;;;1.52;;
10335;SDS011;5213;53.548;9.930;2023-02-19T09:11:49;2.15;;;1.50;;
10335;SDS011;5213;53.548;9.930;2023-02-19T09:14:15;5.72;;;1.65;;
10335;SDS011;5213;53.548;9.930;2023-02-19T09:16:41;4.60;;;2.13;;
10335;SDS011;5213;53.548;9.930;2023-02-19T09:19:07;3.00;;;1.45;;
10335;SDS011;5213;53.548;9.930;2023-02-19T09:21:33;5.60;;;1.30;;
10335;SDS011;5213;53.548;9.930;2023-02-19T09:23:59;4.45;;;1.20;;
10335;SDS011;5213;53.548;9.930;2023-02-19T09:26:25;6.28;;;1.60;;
10335;SDS011;5213;53.548;9.930;2023-02-19T09:28:51;3.38;;;1.25;;
10335;SDS011;5213;53.548;9.930;2023-02-19T09:31:18;5.00;;;1.33;;
10335;SDS011;5213;53.548;9.930;2023-02-19T09:33:44;1.88;;;1.20;;
10335;SDS011;5213;53.548;9.930;2023-02-19T09:36:11;1.77;;;1.20;;
10335;SDS011;5213;53.548;9.930;2023-02-19T09:38:37;4.93;;;1.38;;
10335;SDS011;5213;53.548;9.930;2023-02-19T09:41:05;5.85;;;1.60;;
10335;SDS011;5213;53.548;9.930;2023-02-19T09:43:31;4.53;;;1.25;;
10335;SDS011;5213;53.548;9.930;2023-02-19T09:46:02;4.75;;;1.30;;
10335;SDS011;5213;53.548;9.930;2023-02-19T09:48:29;3.05;;;1.40;;
10335;SDS011;5213;53.548;9.930;2023-02-19T09:50:55;4.70;;;1.45;;
10335;SDS011;5213;53.548;9.930;2023-02-19T09:53:23;3.95;;;1.13;;
10335;SDS011;5213;53.548;9.930;2023-02-19T09:55:50;7.93;;;1.38;;
10335;SDS011;5213;53.548;9.930;2023-02-19T10:00:54;4.20;;;1.48;;
10335;SDS011;5213;53.548;9.930;2023-02-19T10:05:47;5.78;;;1.50;;
10335;SDS011;5213;53.548;9.930;2023-02-19T10:08:18;4.20;;;1.05;;
10335;SDS011;5213;53.548;9.930;2023-02-19T10:10:44;4.15;;;1.35;;
10335;SDS011;5213;53.548;9.930;2023-02-19T10:13:17;5.28;;;1.75;;
10335;SDS011;5213;53.548;9.930;2023-02-19T10:18:15;5.22;;;1.20;;
10335;SDS011;5213;53.548;9.930;2023-02-19T10:20:41;2.13;;;1.10;;
10335;SDS011;5213;53.548;9.930;2023-02-19T10:23:09;7.43;;;1.40;;
10335;SDS011;5213;53.548;9.930;2023-02-19T10:25:35;2.40;;;1.00;;
10335;SDS011;5213;53.548;9.930;2023-02-19T10:28:05;4.13;;;1.00;;
10335;SDS011;5213;53.548;9.930;2023-02-19T10:30:32;3.63;;;1.30;;
10335;SDS011;5213;53.548;9.930;2023-02-19T10:35:25;3.40;;;1.20;;
10335;SDS011;5213;53.548;9.930;2023-02-19T10:37:51;4.45;;;0.88;;
10335;SDS011;5213;53.548;9.930;2023-02-19T10:40:18;3.63;;;1.08;;
10335;SDS011;5213;53.548;9.930;2023-02-19T10:42:49;3.20;;;0.98;;
10335;SDS011;5213;53.548;9.930;2023-02-19T10:45:16;2.13;;;1.00;;
10335;SDS011;5213;53.548;9.930;2023-02-19T10:47:44;3.33;;;0.93;;
10335;SDS011;5213;53.548;9.930;2023-02-19T10:50:23;4.45;;;1.00;;
10335;SDS011;5213;53.548;9.930;2023-02-19T10:52:51;2.17;;;1.05;;
10335;SDS011;5213;53.548;9.930;2023-02-19T10:57:44;2.20;;;1.35;;
10335;SDS011;5213;53.548;9.930;2023-02-19T11:02:40;2.67;;;1.20;;
10335;SDS011;5213;53.548;9.930;2023-02-19T11:07:43;1.95;;;1.13;;
10335;SDS011;5213;53.548;9.930;2023-02-19T11:10:18;2.75;;;1.20;;
10335;SDS011;5213;53.548;9.930;2023-02-19T11:12:46;2.78;;;0.95;;
10335;SDS011;5213;53.548;9.930;2023-02-19T11:15:20;1.25;;;1.10;;
10335;SDS011;5213;53.548;9.930;2023-02-19T11:20:26;1.98;;;1.05;;
10335;SDS011;5213;53.548;9.930;2023-02-19T11:22:55;3.28;;;1.35;;
10335;SDS011;5213;53.548;9.930;2023-02-19T11:25:22;2.05;;;1.10;;
10335;SDS011;5213;53.548;9.930;2023-02-19T11:28:04;2.53;;;1.10;;
10335;SDS011;5213;53.548;9.930;2023-02-19T11:30:35;1.83;;;1.20;;
10335;SDS011;5213;53.548;9.930;2023-02-19T11:33:12;2.25;;;1.10;;
10335;SDS011;5213;53.548;9.930;2023-02-19T11:35:58;2.47;;;1.10;;
10335;SDS011;5213;53.548;9.930;2023-02-19T11:38:25;2.55;;;1.27;;
10335;SDS011;5213;53.548;9.930;2023-02-19T11:48:42;4.03;;;1.38;;
10335;SDS011;5213;53.548;9.930;2023-02-19T11:51:18;3.30;;;1.58;;
10335;SDS011;5213;53.548;9.930;2023-02-19T11:53:46;3.38;;;1.30;;
10335;SDS011;5213;53.548;9.930;2023-02-19T11:56:23;2.90;;;1.30;;
10335;SDS011;5213;53.548;9.930;2023-02-19T11:59:06;1.23;;;1.10;;
10335;SDS011;5213;53.548;9.930;2023-02-19T12:31:50;2.78;;;1.13;;
10335;SDS011;5213;53.548;9.930;2023-02-19T12:37:20;3.47;;;1.08;;
10335;SDS011;5213;53.548;9.930;2023-02-19T12:40:01;2.85;;;1.13;;
10335;SDS011;5213;53.548;9.930;2023-02-19T12:45:04;1.63;;;0.90;;
10335;SDS011;5213;53.548;9.930;2023-02-19T12:47:32;1.48;;;0.80;;
10335;SDS011;5213;53.548;9.930;2023-02-19T12:50:02;3.40;;;0.90;;
10335;SDS011;5213;53.548;9.930;2023-02-19T12:52:31;2.17;;;1.23;;
10335;SDS011;5213;53.548;9.930;2023-02-19T12:55:02;3.78;;;0.93;;
10335;SDS011;5213;53.548;9.930;2023-02-19T12:57:32;1.52;;;0.98;;
10335;SDS011;5213;53.548;9.930;2023-02-19T13:00:05;1.30;;;0.85;;
10335;SDS011;5213;53.548;9.930;2023-02-19T13:05:12;3.60;;;1.38;;
10335;SDS011;5213;53.548;9.930;2023-02-19T13:10:24;4.20;;;0.90;;
10335;SDS011;5213;53.548;9.930;2023-02-19T13:12:51;3.33;;;1.08;;
10335;SDS011;5213;53.548;9.930;2023-02-19T13:15:20;2.45;;;1.30;;
10335;SDS011;5213;53.548;9.930;2023-02-19T13:17:49;2.30;;;0.90;;
10335;SDS011;5213;53.548;9.930;2023-02-19T13:22:57;1.73;;;0.75;;
10335;SDS011;5213;53.548;9.930;2023-02-19T13:25:58;1.17;;;1.00;;
10335;SDS011;5213;53.548;9.930;2023-02-19T13:31:18;2.10;;;0.80;;
10335;SDS011;5213;53.548;9.930;2023-02-19T13:33:54;2.20;;;0.80;;
10335;SDS011;5213;53.548;9.930;2023-02-19T13:36:24;3.20;;;1.02;;
10335;SDS011;5213;53.548;9.930;2023-02-19T13:38:51;1.52;;;0.88;;
10335;SDS011;5213;53.548;9.930;2023-02-19T13:41:18;2.95;;;0.88;;
10335;SDS011;5213;53.548;9.930;2023-02-19T13:43:45;2.30;;;1.00;;
10335;SDS011;5213;53.548;9.930;2023-02-19T13:46:12;2.47;;;1.15;;
10335;SDS011;5213;53.548;9.930;2023-02-19T13:48:40;4.43;;;1.30;;
10335;SDS011;5213;53.548;9.930;2023-02-19T14:04:24;6.18;;;0.95;;
10335;SDS011;5213;53.548;9.930;2023-02-19T14:07:34;5.50;;;0.93;;
10335;SDS011;5213;53.548;9.930;2023-02-19T14:24:53;3.10;;;0.90;;
10335;SDS011;5213;53.548;9.930;2023-02-19T14:27:20;5.50;;;1.13;;
10335;SDS011;5213;53.548;9.930;2023-02-19T14:29:46;1.00;;;0.73;;
10335;SDS011;5213;53.548;9.930;2023-02-19T14:32:15;2.13;;;0.93;;
10335;SDS011;5213;53.548;9.930;2023-02-19T14:34:44;2.33;;;1.00;;
10335;SDS011;5213;53.548;9.930;2023-02-19T14:37:18;3.40;;;1.02;;
10335;SDS011;5213;53.548;9.930;2023-02-19T14:39:45;4.07;;;1.58;;
10335;SDS011;5213;53.548;9.930;2023-02-19T14:42:15;2.03;;;1.05;;
10335;SDS011;5213;53.548;9.930;2023-02-19T14:47:10;3.90;;;1.20;;
10335;SDS011;5213;53.548;9.930;2023-02-19T14:52:10;3.13;;;1.08;;
10335;SDS011;5213;53.548;9.930;2023-02-19T14:54:41;1.80;;;1.00;;
10335;SDS011;5213;53.548;9.930;2023-02-19T14:57:14;2.80;;;1.23;;
10335;SDS011;5213;53.548;9.930;2023-02-19T14:59:40;3.05;;;0.98;;
10335;SDS011;5213;53.548;9.930;2023-02-19T15:02:15;0.98;;;0.95;;
10335;SDS011;5213;53.548;9.930;2023-02-19T15:04:44;2.58;;;1.08;;
10335;SDS011;5213;53.548;9.930;2023-02-19T15:07:12;3.13;;;1.05;;
10335;SDS011;5213;53.548;9.930;2023-02-19T15:09:41;3.42;;;1.20;;
10335;SDS011;5213;53.548;9.930;2023-02-19T15:12:22;4.18;;;1.00;;
10335;SDS011;5213;53.548;9.930;2023-02-19T15:14:49;2.60;;;1.10;;
10335;SDS011;5213;53.548;9.930;2023-02-19T15:17:31;3.95;;;1.30;;
10335;SDS011;5213;53.548;9.930;2023-02-19T15:19:58;4.85;;;1.35;;
10335;SDS011;5213;53.548;9.930;2023-02-19T15:22:27;2.30;;;1.10;;
10335;SDS011;5213;53.548;9.930;2023-02-19T15:24:56;3.53;;;1.00;;
10335;SDS011;5213;53.548;9.930;2023-02-19T15:27:24;1.73;;;1.13;;
10335;SDS011;5213;53.548;9.930;2023-02-19T15:29:51;2.00;;;1.15;;
10335;SDS011;5213;53.548;9.930;2023-02-19T15:32:21;3.40;;;1.20;;
10335;SDS011;5213;53.548;9.930;2023-02-19T15:34:58;2.70;;;1.15;;
10335;SDS011;5213;53.548;9.930;2023-02-19T15:37:31;2.90;;;1.17;;
10335;SDS011;5213;53.548;9.930;2023-02-19T15:39:59;3.60;;;1.15;;
10335;SDS011;5213;53.548;9.930;2023-02-19T15:42:27;1.48;;;1.20;;
10335;SDS011;5213;53.548;9.930;2023-02-19T15:44:58;3.13;;;1.13;;
10335;SDS011;5213;53.548;9.930;2023-02-19T15:47:28;2.63;;;1.10;;
10335;SDS011;5213;53.548;9.930;2023-02-19T15:52:25;1.60;;;1.25;;
10335;SDS011;5213;53.548;9.930;2023-02-19T15:57:32;3.75;;;1.15;;
10335;SDS011;5213;53.548;9.930;2023-02-19T16:00:03;3.55;;;1.25;;
10335;SDS011;5213;53.548;9.930;2023-02-19T16:02:31;3.30;;;1.42;;
10335;SDS011;5213;53.548;9.930;2023-02-19T16:04:57;6.43;;;1.50;;
10335;SDS011;5213;53.548;9.930;2023-02-19T16:07:27;4.55;;;1.50;;
10335;SDS011;5213;53.548;9.930;2023-02-19T16:10:06;3.10;;;1.27;;
10335;SDS011;5213;53.548;9.930;2023-02-19T16:12:32;3.38;;;1.30;;
10335;SDS011;5213;53.548;9.930;2023-02-19T16:14:58;4.22;;;1.30;;
10335;SDS011;5213;53.548;9.930;2023-02-19T16:17:24;1.73;;;1.33;;
10335;SDS011;5213;53.548;9.930;2023-02-19T16:22:18;2.17;;;1.15;;
10335;SDS011;5213;53.548;9.930;2023-02-19T16:24:55;3.63;;;1.45;;
10335;SDS011;5213;53.548;9.930;2023-02-19T16:27:29;2.60;;;1.35;;
10335;SDS011;5213;53.548;9.930;2023-02-19T16:29:56;6.00;;;1.20;;
10335;SDS011;5213;53.548;9.930;2023-02-19T16:32:22;4.75;;;1.13;;
10335;SDS011;5213;53.548;9.930;2023-02-19T16:34:49;2.83;;;1.20;;
10335;SDS011;5213;53.548;9.930;2023-02-19T16:37:32;4.13;;;1.45;;
10335;SDS011;5213;53.548;9.930;2023-02-19T16:42:56;1.95;;;1.20;;
10335;SDS011;5213;53.548;9.930;2023-02-19T16:45:23;2.88;;;1.10;;
10335;SDS011;5213;53.548;9.930;2023-02-19T16:47:49;4.07;;;1.15;;
10335;SDS011;5213;53.548;9.930;2023-02-19T16:50:24;4.45;;;1.30;;
10335;SDS011;5213;53.548;9.930;2023-02-19T16:55:20;6.68;;;1.40;;
10335;SDS011;5213;53.548;9.930;2023-02-19T16:57:46;4.72;;;1.83;;
10335;SDS011;5213;53.548;9.930;2023-02-19T17:00:20;2.78;;;1.40;;
10335;SDS011;5213;53.548;9.930;2023-02-19T17:02:46;4.63;;;1.42;;
10335;SDS011;5213;53.548;9.930;2023-02-19T17:05:13;4.10;;;1.50;;
10335;SDS011;5213;53.548;9.930;2023-02-19T17:07:39;4.32;;;1.35;;
10335;SDS011;5213;53.548;9.930;2023-02-19T17:10:06;2.35;;;1.52;;
10335;SDS011;5213;53.548;9.930;2023-02-19T17:12:32;3.92;;;1.80;;
10335;SDS011;5213;53.548;9.930;2023-02-19T17:14:58;6.90;;;1.77;;
10335;SDS011;5213;53.548;9.930;2023-02-19T17:17:24;4.93;;;1.38;;
10335;SDS011;5213;53.548;9.930;2023-02-19T17:19:50;4.43;;;1.58;;
10335;SDS011;5213;53.548;9.930;2023-02-19T17:22:16;3.13;;;1.42;;
10335;SDS011;5213;53.548;9.930;2023-02-19T17:24:43;1.70;;;1.38;;
10335;SDS011;5213;53.548;9.930;2023-02-19T17:27:10;5.65;;;1.67;;
10335;SDS011;5213;53.548;9.930;2023-02-19T17:29:36;3.03;;;1.63;;
10335;SDS011;5213;53.548;9.930;2023-02-19T17:32:03;2.65;;;1.52;;
10335;SDS011;5213;53.548;9.930;2023-02-19T17:34:29;4.53;;;1.48;;
10335;SDS011;5213;53.548;9.930;2023-02-19T17:36:55;2.97;;;1.70;;